sensor_id;sensor_type;location;lat;lon;timestamp;pressure;altitude;pressure_sealevel;temperature;humidity
7660;BME280;3872;47.902;8.162;2023-12-14T00:02:14;90829.91;;;6.89;100.00
7660;BME280;3872;47.902;8.162;2023-12-14T00:04:41;90831.94;;;6.78;100.00
7660;BME280;3872;47.902;8.162;2023-12-14T00:07:08;90833.25;;;6.67;100.00
7660;BME280;3872;47.902;8.162;2023-12-14T00:09:36;90836.44;;;6.64;100.00
7660;BME280;3872;47.902;8.162;2023-12-14T00:12:02;90832.19;;;6.90;100.00
7660;BME280;3872;47.902;8.162;2023-12-14T00:14:29;90836.06;;;6.93;100.00
7660;BME280;3872;47.902;8.162;2023-12-14T00:16:55;90834.56;;;6.78;100.00
7660;BME280;3872;47.902;8.162;2023-12-14T00:19:24;90837.78;;;6.97;100.00
7660;BME280;3872;47.902;8.162;2023-12-14T00:21:50;90841.25;;;7.06;100.00
7660;BME280;3872;47.902;8.162;2023-12-14T00:24:18;90842.06;;;6.57;100.00
7660;BME280;3872;47.902;8.162;2023-12-14T00:26:45;90843.53;;;6.50;100.00
7660;BME280;3872;47.902;8.162;2023-12-14T00:29:11;90846.84;;;6.42;100.00
7660;BME280;3872;47.902;8.162;2023-12-14T00:31:38;90857.47;;;6.59;100.00
7660;BME280;3872;47.902;8.162;2023-12-14T00:34:04;90863.00;;;6.93;100.00
7660;BME280;3872;47.902;8.162;2023-12-14T00:36:31;90868.59;;;7.00;100.00
7660;BME280;3872;47.902;8.162;2023-12-14T00:38:58;90865.69;;;7.24;100.00
7660;BME280;3872;47.902;8.162;2023-12-14T00:41:26;90873.22;;;7.03;100.00
7660;BME280;3872;47.902;8.162;2023-12-14T00:43:52;90870.56;;;7.17;100.00
7660;BME280;3872;47.902;8.162;2023-12-14T00:46:19;90865.72;;;7.33;100.00
7660;BME280;3872;47.902;8.162;2023-12-14T00:48:45;90874.53;;;7.15;100.00
7660;BME280;3872;47.902;8.162;2023-12-14T00:51:12;90874.84;;;7.13;100.00
7660;BME280;3872;47.902;8.162;2023-12-14T00:53:38;90881.84;;;7.26;100.00
7660;BME280;3872;47.902;8.162;2023-12-14T00:56:07;90879.06;;;7.23;100.00
7660;BME280;3872;47.902;8.162;2023-12-14T00:58:35;90885.34;;;6.63;100.00
7660;BME280;3872;47.902;8.162;2023-12-14T01:01:02;90883.03;;;6.98;100.00
7660;BME280;3872;47.902;8.162;2023-12-14T01:03:29;90892.28;;;6.68;100.00
7660;BME280;3872;47.902;8.162;2023-12-14T01:05:56;90893.38;;;7.03;100.00
7660;BME280;3872;47.902;8.162;2023-12-14T01:08:23;90902.06;;;5.80;100.00
7660;BME280;3872;47.902;8.162;2023-12-14T01:10:49;90896.97;;;5.89;100.00
7660;BME280;3872;47.902;8.162;2023-12-14T01:13:16;90891.16;;;6.60;100.00
7660;BME280;3872;47.902;8.162;2023-12-14T01:15:44;90899.06;;;6.69;100.00
7660;BME280;3872;47.902;8.162;2023-12-14T01:18:10;90901.53;;;5.65;100.00
7660;BME280;3872;47.902;8.162;2023-12-14T01:20:38;90905.13;;;6.28;100.00
7660;BME280;3872;47.902;8.162;2023-12-14T01:23:04;90912.88;;;5.74;100.00
7660;BME280;3872;47.902;8.162;2023-12-14T01:25:31;90917.22;;;6.24;100.00
7660;BME280;3872;47.902;8.162;2023-12-14T01:27:57;90918.81;;;6.75;100.00
7660;BME280;3872;47.902;8.162;2023-12-14T01:30:25;90923.28;;;6.61;100.00
7660;BME280;3872;47.902;8.162;2023-12-14T01:32:53;90923.44;;;6.92;100.00
7660;BME280;3872;47.902;8.162;2023-12-14T01:35:19;90926.28;;;6.82;100.00
7660;BME280;3872;47.902;8.162;2023-12-14T01:37:46;90939.75;;;6.61;100.00
7660;BME280;3872;47.902;8.162;2023-12-14T01:40:13;90935.97;;;6.40;100.00
7660;BME280;3872;47.902;8.162;2023-12-14T01:42:39;90937.56;;;6.91;100.00
7660;BME280;3872;47.902;8.162;2023-12-14T01:45:06;90938.13;;;6.11;100.00
7660;BME280;3872;47.902;8.162;2023-12-14T01:47:33;90941.28;;;6.49;100.00
7660;BME280;3872;47.902;8.162;2023-12-14T01:50:01;90944.78;;;5.84;100.00
7660;BME280;3872;47.902;8.162;2023-12-14T01:52:28;90950.50;;;5.86;100.00
7660;BME280;3872;47.902;8.162;2023-12-14T01:54:54;90948.75;;;6.55;100.00
7660;BME280;3872;47.902;8.162;2023-12-14T01:57:24;90955.50;;;5.83;100.00
7660;BME280;3872;47.902;8.162;2023-12-14T01:59:50;90959.19;;;6.69;100.00
7660;BME280;3872;47.902;8.162;2023-12-14T02:02:17;90964.53;;;6.64;100.00
7660;BME280;3872;47.902;8.162;2023-12-14T02:04:43;90971.78;;;6.40;100.00
7660;BME280;3872;47.902;8.162;2023-12-14T02:07:11;90976.72;;;6.96;100.00
7660;BME280;3872;47.902;8.162;2023-12-14T02:09:38;90986.88;;;6.97;100.00
7660;BME280;3872;47.902;8.162;2023-12-14T02:12:05;90991.72;;;6.77;100.00
7660;BME280;3872;47.902;8.162;2023-12-14T02:14:31;90996.28;;;6.44;100.00
7660;BME280;3872;47.902;8.162;2023-12-14T02:16:58;90993.50;;;6.81;100.00
7660;BME280;3872;47.902;8.162;2023-12-14T02:19:25;90989.63;;;6.65;100.00
7660;BME280;3872;47.902;8.162;2023-12-14T02:21:51;90991.81;;;6.85;100.00
7660;BME280;3872;47.902;8.162;2023-12-14T02:24:19;90996.16;;;6.90;100.00
7660;BME280;3872;47.902;8.162;2023-12-14T02:26:46;90999.09;;;7.02;100.00
7660;BME280;3872;47.902;8.162;2023-12-14T02:29:12;91012.50;;;6.13;100.00
7660;BME280;3872;47.902;8.162;2023-12-14T02:31:39;91010.97;;;6.40;100.00
7660;BME280;3872;47.902;8.162;2023-12-14T02:34:06;91004.41;;;6.97;100.00
7660;BME280;3872;47.902;8.162;2023-12-14T02:36:32;91004.34;;;7.38;100.00
7660;BME280;3872;47.902;8.162;2023-12-14T02:38:59;91011.66;;;7.00;100.00
7660;BME280;3872;47.902;8.162;2023-12-14T02:41:27;91011.69;;;6.86;100.00
7660;BME280;3872;47.902;8.162;2023-12-14T02:43:54;91005.53;;;7.18;100.00
7660;BME280;3872;47.902;8.162;2023-12-14T02:46:20;91013.03;;;6.84;100.00
7660;BME280;3872;47.902;8.162;2023-12-14T02:48:47;91025.75;;;5.66;100.00
7660;BME280;3872;47.902;8.162;2023-12-14T02:51:13;91023.50;;;5.59;100.00
7660;BME280;3872;47.902;8.162;2023-12-14T02:53:41;91023.75;;;6.27;100.00
7660;BME280;3872;47.902;8.162;2023-12-14T02:56:09;91029.94;;;6.18;100.00
7660;BME280;3872;47.902;8.162;2023-12-14T02:58:37;91015.66;;;6.84;100.00
7660;BME280;3872;47.902;8.162;2023-12-14T03:01:04;91022.72;;;6.83;100.00
7660;BME280;3872;47.902;8.162;2023-12-14T03:03:30;91025.63;;;7.09;100.00
7660;BME280;3872;47.902;8.162;2023-12-14T03:05:57;91027.75;;;7.07;100.00
7660;BME280;3872;47.902;8.162;2023-12-14T03:08:24;91028.25;;;7.09;100.00
7660;BME280;3872;47.902;8.162;2023-12-14T03:10:50;91022.25;;;6.81;100.00
7660;BME280;3872;47.902;8.162;2023-12-14T03:13:17;91026.09;;;6.97;100.00
7660;BME280;3872;47.902;8.162;2023-12-14T03:15:44;91032.97;;;7.07;100.00
7660;BME280;3872;47.902;8.162;2023-12-14T03:18:12;91037.72;;;6.78;100.00
7660;BME280;3872;47.902;8.162;2023-12-14T03:20:38;91037.84;;;6.86;100.00
7660;BME280;3872;47.902;8.162;2023-12-14T03:23:05;91039.47;;;6.68;100.00
7660;BME280;3872;47.902;8.162;2023-12-14T03:25:31;91051.19;;;6.85;100.00
7660;BME280;3872;47.902;8.162;2023-12-14T03:27:58;91051.25;;;6.39;100.00
7660;BME280;3872;47.902;8.162;2023-12-14T03:30:24;91055.78;;;6.01;100.00
7660;BME280;3872;47.902;8.162;2023-12-14T03:32:53;91068.53;;;5.88;100.00
7660;BME280;3872;47.902;8.162;2023-12-14T03:35:19;91072.44;;;4.87;100.00
7660;BME280;3872;47.902;8.162;2023-12-14T03:37:46;91076.75;;;5.77;100.00
7660;BME280;3872;47.902;8.162;2023-12-14T03:40:13;91070.44;;;6.61;100.00
7660;BME280;3872;47.902;8.162;2023-12-14T03:42:39;91072.78;;;6.90;100.00
7660;BME280;3872;47.902;8.162;2023-12-14T03:45:06;91067.38;;;7.14;100.00
7660;BME280;3872;47.902;8.162;2023-12-14T03:47:33;91083.63;;;6.84;100.00
7660;BME280;3872;47.902;8.162;2023-12-14T03:50:01;91081.03;;;6.97;100.00
7660;BME280;3872;47.902;8.162;2023-12-14T03:52:28;91091.09;;;6.90;100.00
7660;BME280;3872;47.902;8.162;2023-12-14T03:54:56;91091.41;;;7.16;100.00
7660;BME280;3872;47.902;8.162;2023-12-14T03:57:23;91107.56;;;6.77;100.00
7660;BME280;3872;47.902;8.162;2023-12-14T03:59:49;91123.91;;;6.83;100.00
7660;BME280;3872;47.902;8.162;2023-12-14T04:02:16;91120.81;;;6.35;100.00
7660;BME280;3872;47.902;8.162;2023-12-14T04:04:42;91125.44;;;6.56;100.00
7660;BME280;3872;47.902;8.162;2023-12-14T04:07:11;91127.25;;;6.56;100.00
7660;BME280;3872;47.902;8.162;2023-12-14T04:09:38;91133.81;;;6.86;100.00
7660;BME280;3872;47.902;8.162;2023-12-14T04:12:05;91134.59;;;6.54;100.00
7660;BME280;3872;47.902;8.162;2023-12-14T04:14:32;91131.31;;;6.94;100.00
7660;BME280;3872;47.902;8.162;2023-12-14T04:16:58;91136.59;;;6.76;100.00
7660;BME280;3872;47.902;8.162;2023-12-14T04:19:24;91134.03;;;7.17;100.00
7660;BME280;3872;47.902;8.162;2023-12-14T04:21:51;91140.44;;;7.24;100.00
7660;BME280;3872;47.902;8.162;2023-12-14T04:24:19;91136.53;;;6.94;100.00
7660;BME280;3872;47.902;8.162;2023-12-14T04:26:47;91147.50;;;7.10;100.00
7660;BME280;3872;47.902;8.162;2023-12-14T04:29:14;91151.47;;;7.48;100.00
7660;BME280;3872;47.902;8.162;2023-12-14T04:31:40;91160.88;;;7.50;100.00
7660;BME280;3872;47.902;8.162;2023-12-14T04:34:07;91153.03;;;7.36;100.00
7660;BME280;3872;47.902;8.162;2023-12-14T04:36:37;91156.72;;;7.35;100.00
7660;BME280;3872;47.902;8.162;2023-12-14T04:39:03;91159.88;;;6.91;100.00
7660;BME280;3872;47.902;8.162;2023-12-14T04:41:31;91166.78;;;7.28;100.00
7660;BME280;3872;47.902;8.162;2023-12-14T04:43:58;91179.59;;;7.29;100.00
7660;BME280;3872;47.902;8.162;2023-12-14T04:46:24;91182.13;;;7.34;100.00
7660;BME280;3872;47.902;8.162;2023-12-14T04:48:51;91185.78;;;7.61;100.00
7660;BME280;3872;47.902;8.162;2023-12-14T04:51:17;91189.97;;;6.05;100.00
7660;BME280;3872;47.902;8.162;2023-12-14T04:53:44;91198.78;;;6.27;100.00
7660;BME280;3872;47.902;8.162;2023-12-14T04:56:10;91200.81;;;7.14;100.00
7660;BME280;3872;47.902;8.162;2023-12-14T04:58:39;91201.44;;;6.60;100.00
7660;BME280;3872;47.902;8.162;2023-12-14T05:01:06;91197.31;;;6.73;100.00
7660;BME280;3872;47.902;8.162;2023-12-14T05:03:32;91204.75;;;6.98;100.00
7660;BME280;3872;47.902;8.162;2023-12-14T05:05:59;91208.09;;;7.17;100.00
7660;BME280;3872;47.902;8.162;2023-12-14T05:08:25;91216.72;;;6.53;100.00
7660;BME280;3872;47.902;8.162;2023-12-14T05:10:52;91223.63;;;6.62;100.00
7660;BME280;3872;47.902;8.162;2023-12-14T05:13:19;91223.00;;;6.14;100.00
7660;BME280;3872;47.902;8.162;2023-12-14T05:15:47;91221.63;;;6.73;100.00
7660;BME280;3872;47.902;8.162;2023-12-14T05:18:13;91230.06;;;6.14;100.00
7660;BME280;3872;47.902;8.162;2023-12-14T05:20:40;91238.69;;;6.84;100.00
7660;BME280;3872;47.902;8.162;2023-12-14T05:23:07;91235.47;;;6.74;100.00
7660;BME280;3872;47.902;8.162;2023-12-14T05:25:34;91237.59;;;7.50;100.00
7660;BME280;3872;47.902;8.162;2023-12-14T05:28:00;91230.22;;;7.66;100.00
7660;BME280;3872;47.902;8.162;2023-12-14T05:30:27;91235.06;;;7.86;100.00
7660;BME280;3872;47.902;8.162;2023-12-14T05:32:55;91245.03;;;7.29;100.00
7660;BME280;3872;47.902;8.162;2023-12-14T05:35:21;91251.41;;;6.91;100.00
7660;BME280;3872;47.902;8.162;2023-12-14T05:37:48;91251.56;;;7.59;100.00
7660;BME280;3872;47.902;8.162;2023-12-14T05:40:15;91252.53;;;7.63;100.00
7660;BME280;3872;47.902;8.162;2023-12-14T05:42:41;91259.66;;;7.30;100.00
7660;BME280;3872;47.902;8.162;2023-12-14T05:45:09;91263.22;;;7.21;100.00
7660;BME280;3872;47.902;8.162;2023-12-14T05:47:36;91263.63;;;7.28;100.00
7660;BME280;3872;47.902;8.162;2023-12-14T05:50:05;91275.56;;;7.47;100.00
7660;BME280;3872;47.902;8.162;2023-12-14T05:52:34;91272.09;;;7.38;100.00
7660;BME280;3872;47.902;8.162;2023-12-14T05:55:01;91282.91;;;7.32;100.00
7660;BME280;3872;47.902;8.162;2023-12-14T05:57:27;91290.03;;;7.45;100.00
7660;BME280;3872;47.902;8.162;2023-12-14T05:59:54;91295.31;;;6.94;100.00
7660;BME280;3872;47.902;8.162;2023-12-14T06:02:20;91301.06;;;7.42;100.00
7660;BME280;3872;47.902;8.162;2023-12-14T06:04:47;91297.78;;;7.36;100.00
7660;BME280;3872;47.902;8.162;2023-12-14T06:07:15;91300.78;;;7.43;100.00
7660;BME280;3872;47.902;8.162;2023-12-14T06:09:42;91313.50;;;7.50;100.00
7660;BME280;3872;47.902;8.162;2023-12-14T06:12:08;91315.91;;;7.46;100.00
7660;BME280;3872;47.902;8.162;2023-12-14T06:14:35;91316.53;;;7.25;100.00
7660;BME280;3872;47.902;8.162;2023-12-14T06:17:02;91323.50;;;7.16;100.00
7660;BME280;3872;47.902;8.162;2023-12-14T06:19:29;91325.75;;;7.22;100.00
7660;BME280;3872;47.902;8.162;2023-12-14T06:21:55;91324.97;;;7.22;100.00
7660;BME280;3872;47.902;8.162;2023-12-14T06:24:23;91330.56;;;7.47;100.00
7660;BME280;3872;47.902;8.162;2023-12-14T06:26:50;91334.00;;;7.29;100.00
7660;BME280;3872;47.902;8.162;2023-12-14T06:29:16;91333.81;;;7.07;100.00
7660;BME280;3872;47.902;8.162;2023-12-14T06:31:45;91332.31;;;6.26;100.00
7660;BME280;3872;47.902;8.162;2023-12-14T06:34:11;91337.03;;;5.76;100.00
7660;BME280;3872;47.902;8.162;2023-12-14T06:36:41;91346.28;;;6.16;100.00
7660;BME280;3872;47.902;8.162;2023-12-14T06:39:08;91354.41;;;6.76;100.00
7660;BME280;3872;47.902;8.162;2023-12-14T06:41:37;91342.03;;;7.33;100.00
7660;BME280;3872;47.902;8.162;2023-12-14T06:44:04;91356.53;;;7.44;100.00
7660;BME280;3872;47.902;8.162;2023-12-14T06:46:31;91360.25;;;7.24;100.00
7660;BME280;3872;47.902;8.162;2023-12-14T06:48:57;91363.84;;;7.28;100.00
7660;BME280;3872;47.902;8.162;2023-12-14T06:51:23;91367.88;;;7.21;100.00
7660;BME280;3872;47.902;8.162;2023-12-14T06:53:49;91375.00;;;7.01;100.00
7660;BME280;3872;47.902;8.162;2023-12-14T06:56:16;91376.66;;;7.11;100.00
7660;BME280;3872;47.902;8.162;2023-12-14T06:58:44;91381.47;;;7.23;100.00
7660;BME280;3872;47.902;8.162;2023-12-14T07:01:12;91388.78;;;7.39;100.00
7660;BME280;3872;47.902;8.162;2023-12-14T07:03:39;91386.44;;;7.24;100.00
7660;BME280;3872;47.902;8.162;2023-12-14T07:06:06;91388.06;;;7.01;100.00
7660;BME280;3872;47.902;8.162;2023-12-14T07:08:33;91394.69;;;6.75;100.00
7660;BME280;3872;47.902;8.162;2023-12-14T07:11:00;91399.66;;;7.14;100.00
7660;BME280;3872;47.902;8.162;2023-12-14T07:13:26;91408.22;;;5.87;100.00
7660;BME280;3872;47.902;8.162;2023-12-14T07:15:54;91419.31;;;6.50;100.00
7660;BME280;3872;47.902;8.162;2023-12-14T07:18:21;91425.16;;;5.27;100.00
7660;BME280;3872;47.902;8.162;2023-12-14T07:20:47;91433.16;;;6.27;100.00
7660;BME280;3872;47.902;8.162;2023-12-14T07:23:14;91424.38;;;6.42;100.00
7660;BME280;3872;47.902;8.162;2023-12-14T07:25:41;91436.19;;;6.39;100.00
7660;BME280;3872;47.902;8.162;2023-12-14T07:28:07;91434.06;;;6.84;100.00
7660;BME280;3872;47.902;8.162;2023-12-14T07:30:33;91440.59;;;7.42;100.00
7660;BME280;3872;47.902;8.162;2023-12-14T07:33:01;91442.84;;;6.93;100.00
7660;BME280;3872;47.902;8.162;2023-12-14T07:35:32;91443.91;;;6.92;100.00
7660;BME280;3872;47.902;8.162;2023-12-14T07:37:58;91452.97;;;6.99;100.00
7660;BME280;3872;47.902;8.162;2023-12-14T07:40:25;91448.16;;;7.25;100.00
7660;BME280;3872;47.902;8.162;2023-12-14T07:42:52;91456.00;;;7.44;100.00
7660;BME280;3872;47.902;8.162;2023-12-14T07:45:18;91444.00;;;7.24;100.00
7660;BME280;3872;47.902;8.162;2023-12-14T07:47:44;91462.88;;;6.07;100.00
7660;BME280;3872;47.902;8.162;2023-12-14T07:50:13;91464.31;;;6.90;100.00
7660;BME280;3872;47.902;8.162;2023-12-14T07:52:40;91468.53;;;7.47;100.00
7660;BME280;3872;47.902;8.162;2023-12-14T07:55:07;91468.56;;;7.61;100.00
7660;BME280;3872;47.902;8.162;2023-12-14T07:57:34;91473.72;;;7.84;100.00
7660;BME280;3872;47.902;8.162;2023-12-14T08:00:00;91477.34;;;7.70;100.00
7660;BME280;3872;47.902;8.162;2023-12-14T08:02:31;91493.91;;;7.84;100.00
7660;BME280;3872;47.902;8.162;2023-12-14T08:04:57;91492.69;;;7.95;100.00
7660;BME280;3872;47.902;8.162;2023-12-14T08:07:25;91503.09;;;7.25;100.00
7660;BME280;3872;47.902;8.162;2023-12-14T08:09:54;91505.50;;;7.78;100.00
7660;BME280;3872;47.902;8.162;2023-12-14T08:12:20;91513.59;;;7.63;100.00
7660;BME280;3872;47.902;8.162;2023-12-14T08:14:48;91510.63;;;7.51;100.00
7660;BME280;3872;47.902;8.162;2023-12-14T08:17:14;91521.78;;;7.19;100.00
7660;BME280;3872;47.902;8.162;2023-12-14T08:19:41;91526.69;;;7.44;100.00
7660;BME280;3872;47.902;8.162;2023-12-14T08:22:08;91523.34;;;7.76;100.00
7660;BME280;3872;47.902;8.162;2023-12-14T08:24:37;91536.84;;;7.08;100.00
7660;BME280;3872;47.902;8.162;2023-12-14T08:27:04;91540.75;;;6.87;100.00
7660;BME280;3872;47.902;8.162;2023-12-14T08:29:31;91545.63;;;6.69;100.00
7660;BME280;3872;47.902;8.162;2023-12-14T08:31:57;91540.44;;;7.73;100.00
7660;BME280;3872;47.902;8.162;2023-12-14T08:34:25;91541.06;;;7.65;100.00
7660;BME280;3872;47.902;8.162;2023-12-14T08:36:51;91552.91;;;7.39;100.00
7660;BME280;3872;47.902;8.162;2023-12-14T08:39:18;91554.78;;;6.43;100.00
7660;BME280;3872;47.902;8.162;2023-12-14T08:41:46;91556.34;;;7.58;100.00
7660;BME280;3872;47.902;8.162;2023-12-14T08:44:14;91564.22;;;7.58;100.00
7660;BME280;3872;47.902;8.162;2023-12-14T08:46:41;91569.00;;;7.70;100.00
7660;BME280;3872;47.902;8.162;2023-12-14T08:49:08;91581.47;;;7.97;100.00
7660;BME280;3872;47.902;8.162;2023-12-14T08:51:34;91580.34;;;8.03;100.00
7660;BME280;3872;47.902;8.162;2023-12-14T08:54:01;91582.47;;;7.82;100.00
7660;BME280;3872;47.902;8.162;2023-12-14T08:56:27;91589.81;;;7.61;100.00
7660;BME280;3872;47.902;8.162;2023-12-14T08:58:55;91594.13;;;7.10;100.00
7660;BME280;3872;47.902;8.162;2023-12-14T09:01:23;91598.03;;;6.59;100.00
7660;BME280;3872;47.902;8.162;2023-12-14T09:03:49;91602.50;;;7.73;100.00
7660;BME280;3872;47.902;8.162;2023-12-14T09:06:17;91606.66;;;8.30;100.00
7660;BME280;3872;47.902;8.162;2023-12-14T09:08:43;91608.91;;;7.62;100.00
7660;BME280;3872;47.902;8.162;2023-12-14T09:11:10;91611.16;;;7.92;100.00
7660;BME280;3872;47.902;8.162;2023-12-14T09:13:37;91622.56;;;7.16;100.00
7660;BME280;3872;47.902;8.162;2023-12-14T09:16:05;91621.16;;;7.47;100.00
7660;BME280;3872;47.902;8.162;2023-12-14T09:18:32;91622.13;;;7.94;100.00
7660;BME280;3872;47.902;8.162;2023-12-14T09:20:59;91629.56;;;6.97;100.00
7660;BME280;3872;47.902;8.162;2023-12-14T09:23:25;91631.53;;;7.76;100.00
7660;BME280;3872;47.902;8.162;2023-12-14T09:25:53;91637.78;;;7.99;100.00
7660;BME280;3872;47.902;8.162;2023-12-14T09:28:21;91645.41;;;6.82;100.00
7660;BME280;3872;47.902;8.162;2023-12-14T09:30:47;91644.78;;;7.42;100.00
7660;BME280;3872;47.902;8.162;2023-12-14T09:33:15;91651.25;;;6.74;100.00
7660;BME280;3872;47.902;8.162;2023-12-14T09:35:42;91660.03;;;6.83;100.00
7660;BME280;3872;47.902;8.162;2023-12-14T09:38:09;91654.19;;;7.43;100.00
7660;BME280;3872;47.902;8.162;2023-12-14T09:40:38;91665.97;;;7.89;100.00
7660;BME280;3872;47.902;8.162;2023-12-14T09:43:05;91664.84;;;7.71;100.00
7660;BME280;3872;47.902;8.162;2023-12-14T09:45:35;91673.13;;;7.59;100.00
7660;BME280;3872;47.902;8.162;2023-12-14T09:48:02;91676.66;;;7.92;100.00
7660;BME280;3872;47.902;8.162;2023-12-14T09:50:30;91685.25;;;7.74;100.00
7660;BME280;3872;47.902;8.162;2023-12-14T09:52:57;91682.03;;;8.01;100.00
7660;BME280;3872;47.902;8.162;2023-12-14T09:55:24;91686.63;;;6.61;100.00
7660;BME280;3872;47.902;8.162;2023-12-14T09:57:50;91689.25;;;6.61;100.00
7660;BME280;3872;47.902;8.162;2023-12-14T10:00:32;91695.53;;;6.21;100.00
7660;BME280;3872;47.902;8.162;2023-12-14T10:03:17;91700.13;;;7.55;100.00
7660;BME280;3872;47.902;8.162;2023-12-14T10:05:45;91697.00;;;7.29;100.00
7660;BME280;3872;47.902;8.162;2023-12-14T10:08:12;91701.28;;;7.91;100.00
7660;BME280;3872;47.902;8.162;2023-12-14T10:10:39;91701.44;;;8.00;100.00
7660;BME280;3872;47.902;8.162;2023-12-14T10:13:05;91698.28;;;8.21;100.00
7660;BME280;3872;47.902;8.162;2023-12-14T10:15:40;91707.94;;;7.36;100.00
7660;BME280;3872;47.902;8.162;2023-12-14T10:18:06;91704.75;;;7.86;100.00
7660;BME280;3872;47.902;8.162;2023-12-14T10:20:33;91703.81;;;7.77;100.00
7660;BME280;3872;47.902;8.162;2023-12-14T10:23:01;91713.78;;;7.75;100.00
7660;BME280;3872;47.902;8.162;2023-12-14T10:25:27;91706.84;;;8.27;100.00
7660;BME280;3872;47.902;8.162;2023-12-14T10:27:54;91713.09;;;8.50;100.00
7660;BME280;3872;47.902;8.162;2023-12-14T10:30:20;91717.91;;;8.61;100.00
7660;BME280;3872;47.902;8.162;2023-12-14T10:32:47;91715.75;;;8.07;100.00
7660;BME280;3872;47.902;8.162;2023-12-14T10:35:14;91726.56;;;8.81;100.00
7660;BME280;3872;47.902;8.162;2023-12-14T10:37:42;91719.75;;;8.61;100.00
7660;BME280;3872;47.902;8.162;2023-12-14T10:40:13;91718.03;;;9.21;100.00
7660;BME280;3872;47.902;8.162;2023-12-14T10:42:42;91720.81;;;9.11;99.99
7660;BME280;3872;47.902;8.162;2023-12-14T10:45:11;91728.31;;;8.85;100.00
7660;BME280;3872;47.902;8.162;2023-12-14T10:47:39;91724.41;;;8.08;100.00
7660;BME280;3872;47.902;8.162;2023-12-14T10:50:10;91734.31;;;8.11;100.00
7660;BME280;3872;47.902;8.162;2023-12-14T10:52:37;91736.91;;;8.11;100.00
7660;BME280;3872;47.902;8.162;2023-12-14T10:55:08;91737.75;;;8.68;100.00
7660;BME280;3872;47.902;8.162;2023-12-14T10:57:38;91754.97;;;7.17;100.00
7660;BME280;3872;47.902;8.162;2023-12-14T11:00:05;91757.13;;;7.10;100.00
7660;BME280;3872;47.902;8.162;2023-12-14T11:02:39;91756.00;;;8.59;100.00
7660;BME280;3872;47.902;8.162;2023-12-14T11:05:06;91764.22;;;7.62;100.00
7660;BME280;3872;47.902;8.162;2023-12-14T11:07:45;91757.44;;;8.27;100.00
7660;BME280;3872;47.902;8.162;2023-12-14T11:10:12;91764.97;;;7.10;100.00
7660;BME280;3872;47.902;8.162;2023-12-14T11:12:51;91772.28;;;6.79;100.00
7660;BME280;3872;47.902;8.162;2023-12-14T11:15:18;91772.59;;;7.35;100.00
7660;BME280;3872;47.902;8.162;2023-12-14T11:18:22;91765.56;;;8.50;100.00
7660;BME280;3872;47.902;8.162;2023-12-14T11:20:51;91773.06;;;7.90;100.00
7660;BME280;3872;47.902;8.162;2023-12-14T11:23:27;91769.72;;;8.08;100.00
7660;BME280;3872;47.902;8.162;2023-12-14T11:25:57;91777.09;;;8.49;100.00
7660;BME280;3872;47.902;8.162;2023-12-14T11:28:25;91783.06;;;7.88;100.00
7660;BME280;3872;47.902;8.162;2023-12-14T11:30:52;91780.63;;;8.39;100.00
7660;BME280;3872;47.902;8.162;2023-12-14T11:33:18;91786.41;;;7.12;100.00
7660;BME280;3872;47.902;8.162;2023-12-14T11:35:45;91795.19;;;7.26;100.00
7660;BME280;3872;47.902;8.162;2023-12-14T11:38:11;91805.84;;;6.62;100.00
7660;BME280;3872;47.902;8.162;2023-12-14T11:40:38;91810.66;;;6.40;100.00
7660;BME280;3872;47.902;8.162;2023-12-14T11:43:05;91810.25;;;7.39;100.00
7660;BME280;3872;47.902;8.162;2023-12-14T11:45:35;91808.63;;;6.37;100.00
7660;BME280;3872;47.902;8.162;2023-12-14T11:48:02;91815.22;;;6.19;100.00
7660;BME280;3872;47.902;8.162;2023-12-14T11:50:31;91813.91;;;7.10;100.00
7660;BME280;3872;47.902;8.162;2023-12-14T11:52:59;91813.31;;;7.46;100.00
7660;BME280;3872;47.902;8.162;2023-12-14T11:55:26;91812.81;;;7.97;100.00
7660;BME280;3872;47.902;8.162;2023-12-14T11:57:53;91809.97;;;8.41;100.00
7660;BME280;3872;47.902;8.162;2023-12-14T12:00:23;91814.63;;;7.49;100.00
7660;BME280;3872;47.902;8.162;2023-12-14T12:02:51;91828.81;;;7.09;100.00
7660;BME280;3872;47.902;8.162;2023-12-14T12:05:18;91832.34;;;7.28;100.00
7660;BME280;3872;47.902;8.162;2023-12-14T12:07:44;91839.75;;;6.77;100.00
7660;BME280;3872;47.902;8.162;2023-12-14T12:10:11;91840.81;;;6.22;100.00
7660;BME280;3872;47.902;8.162;2023-12-14T12:12:38;91844.16;;;6.87;100.00
7660;BME280;3872;47.902;8.162;2023-12-14T12:15:05;91835.06;;;7.13;100.00
7660;BME280;3872;47.902;8.162;2023-12-14T12:17:32;91838.91;;;6.87;100.00
7660;BME280;3872;47.902;8.162;2023-12-14T12:20:05;91843.59;;;6.90;100.00
7660;BME280;3872;47.902;8.162;2023-12-14T12:22:32;91843.97;;;7.12;100.00
7660;BME280;3872;47.902;8.162;2023-12-14T12:24:58;91850.59;;;6.55;100.00
7660;BME280;3872;47.902;8.162;2023-12-14T12:27:26;91851.44;;;6.90;100.00
7660;BME280;3872;47.902;8.162;2023-12-14T12:29:52;91847.50;;;7.31;100.00
7660;BME280;3872;47.902;8.162;2023-12-14T12:32:20;91854.69;;;6.72;100.00
7660;BME280;3872;47.902;8.162;2023-12-14T12:34:46;91843.03;;;7.90;100.00
7660;BME280;3872;47.902;8.162;2023-12-14T12:37:14;91848.38;;;7.79;100.00
7660;BME280;3872;47.902;8.162;2023-12-14T12:39:41;91852.44;;;7.33;100.00
7660;BME280;3872;47.902;8.162;2023-12-14T12:42:08;91852.00;;;7.83;100.00
7660;BME280;3872;47.902;8.162;2023-12-14T12:44:35;91856.44;;;7.59;100.00
7660;BME280;3872;47.902;8.162;2023-12-14T12:47:01;91850.34;;;7.64;100.00
7660;BME280;3872;47.902;8.162;2023-12-14T12:49:29;91859.34;;;7.19;100.00
7660;BME280;3872;47.902;8.162;2023-12-14T12:51:56;91852.13;;;8.21;100.00
7660;BME280;3872;47.902;8.162;2023-12-14T12:54:24;91857.91;;;6.58;100.00
7660;BME280;3872;47.902;8.162;2023-12-14T12:56:50;91862.97;;;6.35;100.00
7660;BME280;3872;47.902;8.162;2023-12-14T12:59:17;91862.06;;;7.03;100.00
7660;BME280;3872;47.902;8.162;2023-12-14T13:01:43;91878.56;;;6.60;100.00
7660;BME280;3872;47.902;8.162;2023-12-14T13:04:18;91875.81;;;6.85;100.00
7660;BME280;3872;47.902;8.162;2023-12-14T13:06:45;91872.47;;;6.75;100.00
7660;BME280;3872;47.902;8.162;2023-12-14T13:09:11;91879.66;;;7.32;100.00
7660;BME280;3872;47.902;8.162;2023-12-14T13:11:40;91883.66;;;6.85;100.00
7660;BME280;3872;47.902;8.162;2023-12-14T13:14:08;91881.47;;;7.99;100.00
7660;BME280;3872;47.902;8.162;2023-12-14T13:16:35;91879.81;;;8.56;100.00
7660;BME280;3872;47.902;8.162;2023-12-14T13:19:02;91883.28;;;8.94;100.00
7660;BME280;3872;47.902;8.162;2023-12-14T13:21:29;91885.66;;;8.00;100.00
7660;BME280;3872;47.902;8.162;2023-12-14T13:23:55;91899.63;;;6.79;100.00